sensor_id;sensor_type;location;lat;lon;timestamp;P1;durP1;ratioP1;P2;durP2;ratioP2
44276;SDS011;29973;43.742;1.236;2024-02-16T00:02:00;12.82;;;3.10;;
44276;SDS011;29973;43.742;1.236;2024-02-16T00:04:26;18.13;;;5.00;;
44276;SDS011;29973;43.742;1.236;2024-02-16T00:06:52;15.77;;;3.58;;
44276;SDS011;29973;43.742;1.236;2024-02-16T00:09:18;16.42;;;4.50;;
44276;SDS011;29973;43.742;1.236;2024-02-16T00:11:43;13.55;;;3.83;;
44276;SDS011;29973;43.742;1.236;2024-02-16T00:14:10;24.48;;;5.03;;
44276;SDS011;29973;43.742;1.236;2024-02-16T00:16:35;16.27;;;4.60;;
44276;SDS011;29973;43.742;1.236;2024-02-16T00:19:01;15.43;;;5.35;;
44276;SDS011;29973;43.742;1.236;2024-02-16T00:21:27;9.60;;;3.80;;
44276;SDS011;29973;43.742;1.236;2024-02-16T00:23:52;17.00;;;4.38;;
44276;SDS011;29973;43.742;1.236;2024-02-16T00:26:19;14.75;;;4.60;;
44276;SDS011;29973;43.742;1.236;2024-02-16T00:28:46;18.23;;;5.20;;
44276;SDS011;29973;43.742;1.236;2024-02-16T00:31:12;13.32;;;4.18;;
44276;SDS011;29973;43.742;1.236;2024-02-16T00:33:37;13.18;;;3.78;;
44276;SDS011;29973;43.742;1.236;2024-02-16T00:36:03;12.25;;;3.67;;
44276;SDS011;29973;43.742;1.236;2024-02-16T00:38:29;16.17;;;3.78;;
44276;SDS011;29973;43.742;1.236;2024-02-16T00:40:54;15.05;;;4.32;;
44276;SDS011;29973;43.742;1.236;2024-02-16T00:43:20;16.33;;;6.43;;
44276;SDS011;29973;43.742;1.236;2024-02-16T00:45:46;26.45;;;8.00;;
44276;SDS011;29973;43.742;1.236;2024-02-16T00:48:13;23.33;;;6.18;;
44276;SDS011;29973;43.742;1.236;2024-02-16T00:50:39;19.75;;;5.45;;
44276;SDS011;29973;43.742;1.236;2024-02-16T00:53:07;31.75;;;9.25;;
44276;SDS011;29973;43.742;1.236;2024-02-16T00:55:33;30.98;;;6.65;;
44276;SDS011;29973;43.742;1.236;2024-02-16T00:57:58;21.27;;;6.43;;
44276;SDS011;29973;43.742;1.236;2024-02-16T01:00:24;26.38;;;6.38;;
44276;SDS011;29973;43.742;1.236;2024-02-16T01:02:51;12.50;;;3.40;;
44276;SDS011;29973;43.742;1.236;2024-02-16T01:05:17;16.73;;;4.13;;
44276;SDS011;29973;43.742;1.236;2024-02-16T01:07:43;13.43;;;4.22;;
44276;SDS011;29973;43.742;1.236;2024-02-16T01:10:10;14.18;;;4.10;;
44276;SDS011;29973;43.742;1.236;2024-02-16T01:12:37;19.38;;;4.22;;
44276;SDS011;29973;43.742;1.236;2024-02-16T01:15:03;13.05;;;3.85;;
44276;SDS011;29973;43.742;1.236;2024-02-16T01:17:29;20.27;;;4.82;;
44276;SDS011;29973;43.742;1.236;2024-02-16T01:19:54;20.67;;;4.75;;
44276;SDS011;29973;43.742;1.236;2024-02-16T01:22:21;18.60;;;3.85;;
44276;SDS011;29973;43.742;1.236;2024-02-16T01:24:47;16.17;;;4.00;;
44276;SDS011;29973;43.742;1.236;2024-02-16T01:27:14;21.08;;;4.60;;
44276;SDS011;29973;43.742;1.236;2024-02-16T01:29:41;23.08;;;4.95;;
44276;SDS011;29973;43.742;1.236;2024-02-16T01:32:06;16.73;;;4.53;;
44276;SDS011;29973;43.742;1.236;2024-02-16T01:34:32;19.15;;;5.20;;
44276;SDS011;29973;43.742;1.236;2024-02-16T01:36:58;19.48;;;3.80;;
44276;SDS011;29973;43.742;1.236;2024-02-16T01:39:24;21.15;;;4.43;;
44276;SDS011;29973;43.742;1.236;2024-02-16T01:41:50;18.13;;;4.72;;
44276;SDS011;29973;43.742;1.236;2024-02-16T01:44:15;19.38;;;3.72;;
44276;SDS011;29973;43.742;1.236;2024-02-16T01:46:42;16.83;;;3.83;;
44276;SDS011;29973;43.742;1.236;2024-02-16T01:49:08;17.67;;;5.30;;
44276;SDS011;29973;43.742;1.236;2024-02-16T01:51:35;18.60;;;4.47;;
44276;SDS011;29973;43.742;1.236;2024-02-16T01:54:02;15.80;;;3.80;;
44276;SDS011;29973;43.742;1.236;2024-02-16T01:56:28;15.57;;;3.85;;
44276;SDS011;29973;43.742;1.236;2024-02-16T01:58:54;10.70;;;3.83;;
44276;SDS011;29973;43.742;1.236;2024-02-16T02:01:20;13.85;;;4.28;;
44276;SDS011;29973;43.742;1.236;2024-02-16T02:03:46;23.38;;;5.60;;
44276;SDS011;29973;43.742;1.236;2024-02-16T02:06:11;10.98;;;3.65;;
44276;SDS011;29973;43.742;1.236;2024-02-16T02:08:37;23.27;;;4.93;;
44276;SDS011;29973;43.742;1.236;2024-02-16T02:11:03;18.25;;;4.43;;
44276;SDS011;29973;43.742;1.236;2024-02-16T02:13:28;14.23;;;4.30;;
44276;SDS011;29973;43.742;1.236;2024-02-16T02:15:55;26.38;;;5.60;;
44276;SDS011;29973;43.742;1.236;2024-02-16T02:18:22;22.40;;;4.43;;
44276;SDS011;29973;43.742;1.236;2024-02-16T02:20:47;22.55;;;5.20;;
44276;SDS011;29973;43.742;1.236;2024-02-16T02:23:13;15.68;;;5.55;;
44276;SDS011;29973;43.742;1.236;2024-02-16T02:25:39;16.52;;;4.70;;
44276;SDS011;29973;43.742;1.236;2024-02-16T02:28:05;24.33;;;5.00;;
44276;SDS011;29973;43.742;1.236;2024-02-16T02:30:31;23.98;;;5.10;;
44276;SDS011;29973;43.742;1.236;2024-02-16T02:32:56;30.38;;;5.45;;
44276;SDS011;29973;43.742;1.236;2024-02-16T02:35:22;19.75;;;4.57;;
44276;SDS011;29973;43.742;1.236;2024-02-16T02:37:48;24.15;;;4.40;;
44276;SDS011;29973;43.742;1.236;2024-02-16T02:40:14;22.67;;;4.70;;
44276;SDS011;29973;43.742;1.236;2024-02-16T02:42:40;20.63;;;4.03;;
44276;SDS011;29973;43.742;1.236;2024-02-16T02:45:06;16.95;;;4.03;;
44276;SDS011;29973;43.742;1.236;2024-02-16T02:47:32;16.40;;;3.63;;
44276;SDS011;29973;43.742;1.236;2024-02-16T02:49:58;20.00;;;4.43;;
44276;SDS011;29973;43.742;1.236;2024-02-16T02:52:24;22.85;;;4.45;;
44276;SDS011;29973;43.742;1.236;2024-02-16T02:54:50;25.45;;;5.05;;
44276;SDS011;29973;43.742;1.236;2024-02-16T02:57:15;20.17;;;4.25;;
44276;SDS011;29973;43.742;1.236;2024-02-16T02:59:41;13.90;;;4.82;;
44276;SDS011;29973;43.742;1.236;2024-02-16T03:02:06;16.00;;;4.47;;
44276;SDS011;29973;43.742;1.236;2024-02-16T03:04:34;31.27;;;5.43;;
44276;SDS011;29973;43.742;1.236;2024-02-16T03:07:00;22.58;;;5.38;;
44276;SDS011;29973;43.742;1.236;2024-02-16T03:09:25;27.98;;;7.38;;
44276;SDS011;29973;43.742;1.236;2024-02-16T03:11:51;28.75;;;8.05;;
44276;SDS011;29973;43.742;1.236;2024-02-16T03:14:18;25.05;;;7.50;;
44276;SDS011;29973;43.742;1.236;2024-02-16T03:16:43;14.95;;;6.25;;
44276;SDS011;29973;43.742;1.236;2024-02-16T03:19:09;19.48;;;8.00;;
44276;SDS011;29973;43.742;1.236;2024-02-16T03:21:34;26.08;;;7.28;;
44276;SDS011;29973;43.742;1.236;2024-02-16T03:24:01;15.20;;;6.95;;
44276;SDS011;29973;43.742;1.236;2024-02-16T03:26:27;13.63;;;5.00;;
44276;SDS011;29973;43.742;1.236;2024-02-16T03:28:53;28.08;;;5.50;;
44276;SDS011;29973;43.742;1.236;2024-02-16T03:31:22;36.17;;;5.38;;
44276;SDS011;29973;43.742;1.236;2024-02-16T03:33:49;22.83;;;5.43;;
44276;SDS011;29973;43.742;1.236;2024-02-16T03:36:16;23.80;;;5.50;;
44276;SDS011;29973;43.742;1.236;2024-02-16T03:38:48;19.13;;;5.25;;
44276;SDS011;29973;43.742;1.236;2024-02-16T03:41:21;23.20;;;6.00;;
44276;SDS011;29973;43.742;1.236;2024-02-16T03:43:48;23.77;;;5.28;;
44276;SDS011;29973;43.742;1.236;2024-02-16T03:46:15;18.80;;;5.25;;
44276;SDS011;29973;43.742;1.236;2024-02-16T03:48:40;24.63;;;5.35;;
44276;SDS011;29973;43.742;1.236;2024-02-16T03:51:06;19.45;;;5.50;;
44276;SDS011;29973;43.742;1.236;2024-02-16T03:53:32;17.77;;;5.07;;
44276;SDS011;29973;43.742;1.236;2024-02-16T03:55:58;29.85;;;5.13;;
44276;SDS011;29973;43.742;1.236;2024-02-16T03:58:24;18.75;;;4.93;;
44276;SDS011;29973;43.742;1.236;2024-02-16T04:00:50;19.92;;;4.95;;
44276;SDS011;29973;43.742;1.236;2024-02-16T04:03:17;21.05;;;5.70;;
44276;SDS011;29973;43.742;1.236;2024-02-16T04:05:43;25.98;;;6.13;;
44276;SDS011;29973;43.742;1.236;2024-02-16T04:08:09;21.23;;;6.15;;
44276;SDS011;29973;43.742;1.236;2024-02-16T04:10:35;16.58;;;6.30;;
44276;SDS011;29973;43.742;1.236;2024-02-16T04:13:01;21.73;;;5.75;;
44276;SDS011;29973;43.742;1.236;2024-02-16T04:15:27;22.02;;;5.82;;
44276;SDS011;29973;43.742;1.236;2024-02-16T04:17:53;27.88;;;6.10;;
44276;SDS011;29973;43.742;1.236;2024-02-16T04:20:19;21.55;;;6.18;;
44276;SDS011;29973;43.742;1.236;2024-02-16T04:22:45;23.13;;;5.78;;
44276;SDS011;29973;43.742;1.236;2024-02-16T04:25:11;18.77;;;5.63;;
44276;SDS011;29973;43.742;1.236;2024-02-16T04:27:37;15.63;;;4.43;;
44276;SDS011;29973;43.742;1.236;2024-02-16T04:30:03;16.33;;;5.13;;
44276;SDS011;29973;43.742;1.236;2024-02-16T04:32:31;12.48;;;3.92;;
44276;SDS011;29973;43.742;1.236;2024-02-16T04:34:57;15.63;;;4.47;;
44276;SDS011;29973;43.742;1.236;2024-02-16T04:37:24;7.97;;;3.80;;
44276;SDS011;29973;43.742;1.236;2024-02-16T04:39:50;6.65;;;3.22;;
44276;SDS011;29973;43.742;1.236;2024-02-16T04:42:17;12.13;;;5.03;;
44276;SDS011;29973;43.742;1.236;2024-02-16T04:44:43;15.38;;;4.20;;
44276;SDS011;29973;43.742;1.236;2024-02-16T04:47:08;10.20;;;4.40;;
44276;SDS011;29973;43.742;1.236;2024-02-16T04:49:34;8.10;;;3.72;;
44276;SDS011;29973;43.742;1.236;2024-02-16T04:52:01;7.15;;;3.45;;
44276;SDS011;29973;43.742;1.236;2024-02-16T04:54:27;9.45;;;4.07;;
44276;SDS011;29973;43.742;1.236;2024-02-16T04:56:53;10.85;;;4.05;;
44276;SDS011;29973;43.742;1.236;2024-02-16T04:59:19;12.68;;;4.32;;
44276;SDS011;29973;43.742;1.236;2024-02-16T05:01:45;15.25;;;4.40;;
44276;SDS011;29973;43.742;1.236;2024-02-16T05:04:12;12.35;;;4.45;;
44276;SDS011;29973;43.742;1.236;2024-02-16T05:06:45;10.27;;;4.10;;
44276;SDS011;29973;43.742;1.236;2024-02-16T05:09:11;12.38;;;4.72;;
44276;SDS011;29973;43.742;1.236;2024-02-16T05:11:41;13.23;;;5.65;;
44276;SDS011;29973;43.742;1.236;2024-02-16T05:14:07;9.82;;;5.65;;
44276;SDS011;29973;43.742;1.236;2024-02-16T05:16:33;9.70;;;6.05;;
44276;SDS011;29973;43.742;1.236;2024-02-16T05:18:59;12.90;;;5.97;;
44276;SDS011;29973;43.742;1.236;2024-02-16T05:21:24;8.73;;;4.78;;
44276;SDS011;29973;43.742;1.236;2024-02-16T05:23:50;13.45;;;5.25;;
44276;SDS011;29973;43.742;1.236;2024-02-16T05:26:15;5.95;;;4.75;;
44276;SDS011;29973;43.742;1.236;2024-02-16T05:28:41;7.68;;;4.88;;
44276;SDS011;29973;43.742;1.236;2024-02-16T05:31:14;8.00;;;5.18;;
44276;SDS011;29973;43.742;1.236;2024-02-16T05:33:42;13.15;;;5.03;;
44276;SDS011;29973;43.742;1.236;2024-02-16T05:36:16;6.15;;;4.22;;
44276;SDS011;29973;43.742;1.236;2024-02-16T05:38:45;11.23;;;4.22;;
44276;SDS011;29973;43.742;1.236;2024-02-16T05:41:13;10.63;;;4.50;;
44276;SDS011;29973;43.742;1.236;2024-02-16T05:43:42;10.15;;;4.75;;
44276;SDS011;29973;43.742;1.236;2024-02-16T05:46:12;9.40;;;3.67;;
44276;SDS011;29973;43.742;1.236;2024-02-16T05:48:41;7.05;;;3.70;;
44276;SDS011;29973;43.742;1.236;2024-02-16T05:51:07;7.45;;;3.35;;
44276;SDS011;29973;43.742;1.236;2024-02-16T05:53:33;8.48;;;3.55;;
44276;SDS011;29973;43.742;1.236;2024-02-16T05:56:00;10.32;;;3.47;;
44276;SDS011;29973;43.742;1.236;2024-02-16T05:58:26;6.70;;;3.45;;
44276;SDS011;29973;43.742;1.236;2024-02-16T06:00:54;7.43;;;3.97;;
44276;SDS011;29973;43.742;1.236;2024-02-16T06:03:19;15.65;;;4.63;;
44276;SDS011;29973;43.742;1.236;2024-02-16T06:05:45;19.05;;;5.70;;
44276;SDS011;29973;43.742;1.236;2024-02-16T06:08:11;9.98;;;5.15;;
44276;SDS011;29973;43.742;1.236;2024-02-16T06:10:37;14.88;;;5.88;;
44276;SDS011;29973;43.742;1.236;2024-02-16T06:13:03;9.75;;;5.20;;
44276;SDS011;29973;43.742;1.236;2024-02-16T06:15:29;15.88;;;5.88;;
44276;SDS011;29973;43.742;1.236;2024-02-16T06:17:55;19.92;;;9.93;;
44276;SDS011;29973;43.742;1.236;2024-02-16T06:20:21;28.83;;;11.05;;
44276;SDS011;29973;43.742;1.236;2024-02-16T06:22:47;11.32;;;5.90;;
44276;SDS011;29973;43.742;1.236;2024-02-16T06:25:13;10.48;;;5.65;;
44276;SDS011;29973;43.742;1.236;2024-02-16T06:27:40;12.13;;;5.88;;
44276;SDS011;29973;43.742;1.236;2024-02-16T06:30:06;8.85;;;5.70;;
44276;SDS011;29973;43.742;1.236;2024-02-16T06:32:35;23.20;;;9.70;;
44276;SDS011;29973;43.742;1.236;2024-02-16T06:35:00;37.03;;;11.32;;
44276;SDS011;29973;43.742;1.236;2024-02-16T06:37:26;26.20;;;11.13;;
44276;SDS011;29973;43.742;1.236;2024-02-16T06:39:52;19.25;;;8.13;;
44276;SDS011;29973;43.742;1.236;2024-02-16T06:42:17;18.58;;;7.15;;
44276;SDS011;29973;43.742;1.236;2024-02-16T06:44:43;15.32;;;7.88;;
44276;SDS011;29973;43.742;1.236;2024-02-16T06:47:09;18.65;;;8.15;;
44276;SDS011;29973;43.742;1.236;2024-02-16T06:49:34;18.83;;;8.50;;
44276;SDS011;29973;43.742;1.236;2024-02-16T06:52:00;27.42;;;10.55;;
44276;SDS011;29973;43.742;1.236;2024-02-16T06:54:26;20.30;;;8.02;;
44276;SDS011;29973;43.742;1.236;2024-02-16T06:56:51;17.92;;;6.65;;
44276;SDS011;29973;43.742;1.236;2024-02-16T06:59:17;17.60;;;7.40;;
44276;SDS011;29973;43.742;1.236;2024-02-16T07:01:43;10.88;;;5.78;;
44276;SDS011;29973;43.742;1.236;2024-02-16T07:04:09;12.20;;;5.10;;
44276;SDS011;29973;43.742;1.236;2024-02-16T07:06:35;16.75;;;7.30;;
44276;SDS011;29973;43.742;1.236;2024-02-16T07:09:00;9.90;;;5.18;;
44276;SDS011;29973;43.742;1.236;2024-02-16T07:11:27;8.73;;;4.53;;
44276;SDS011;29973;43.742;1.236;2024-02-16T07:13:53;7.88;;;4.10;;
44276;SDS011;29973;43.742;1.236;2024-02-16T07:16:19;10.95;;;3.78;;
44276;SDS011;29973;43.742;1.236;2024-02-16T07:18:45;4.85;;;2.65;;
44276;SDS011;29973;43.742;1.236;2024-02-16T07:21:10;10.20;;;2.75;;
44276;SDS011;29973;43.742;1.236;2024-02-16T07:23:36;8.23;;;2.67;;
44276;SDS011;29973;43.742;1.236;2024-02-16T07:26:03;6.05;;;2.33;;
44276;SDS011;29973;43.742;1.236;2024-02-16T07:28:29;5.50;;;2.35;;
44276;SDS011;29973;43.742;1.236;2024-02-16T07:30:55;6.75;;;2.22;;
44276;SDS011;29973;43.742;1.236;2024-02-16T07:33:21;4.57;;;2.22;;
44276;SDS011;29973;43.742;1.236;2024-02-16T07:35:49;3.45;;;2.28;;
44276;SDS011;29973;43.742;1.236;2024-02-16T07:38:15;6.15;;;2.03;;
44276;SDS011;29973;43.742;1.236;2024-02-16T07:40:41;9.18;;;2.38;;
44276;SDS011;29973;43.742;1.236;2024-02-16T07:43:07;4.80;;;2.08;;
44276;SDS011;29973;43.742;1.236;2024-02-16T07:45:33;7.68;;;3.20;;
44276;SDS011;29973;43.742;1.236;2024-02-16T07:47:59;8.30;;;3.03;;
44276;SDS011;29973;43.742;1.236;2024-02-16T07:50:28;6.07;;;2.92;;
44276;SDS011;29973;43.742;1.236;2024-02-16T07:52:53;10.82;;;2.75;;
44276;SDS011;29973;43.742;1.236;2024-02-16T07:55:19;12.73;;;2.85;;
44276;SDS011;29973;43.742;1.236;2024-02-16T07:57:45;9.05;;;2.88;;
44276;SDS011;29973;43.742;1.236;2024-02-16T08:00:12;9.55;;;2.75;;
44276;SDS011;29973;43.742;1.236;2024-02-16T08:02:38;10.75;;;2.58;;
44276;SDS011;29973;43.742;1.236;2024-02-16T08:05:08;13.40;;;2.28;;
44276;SDS011;29973;43.742;1.236;2024-02-16T08:07:41;11.05;;;2.95;;
44276;SDS011;29973;43.742;1.236;2024-02-16T08:10:07;7.32;;;2.70;;
44276;SDS011;29973;43.742;1.236;2024-02-16T08:12:33;4.97;;;2.58;;
44276;SDS011;29973;43.742;1.236;2024-02-16T08:15:00;8.60;;;2.97;;
44276;SDS011;29973;43.742;1.236;2024-02-16T08:20:01;14.05;;;3.28;;
44276;SDS011;29973;43.742;1.236;2024-02-16T08:22:27;10.40;;;3.33;;
44276;SDS011;29973;43.742;1.236;2024-02-16T08:24:53;9.57;;;2.60;;
44276;SDS011;29973;43.742;1.236;2024-02-16T08:27:18;5.85;;;2.78;;
44276;SDS011;29973;43.742;1.236;2024-02-16T08:29:44;10.38;;;2.85;;
44276;SDS011;29973;43.742;1.236;2024-02-16T08:32:10;11.52;;;3.70;;
44276;SDS011;29973;43.742;1.236;2024-02-16T08:34:36;8.13;;;2.83;;
44276;SDS011;29973;43.742;1.236;2024-02-16T08:37:02;6.55;;;2.50;;
44276;SDS011;29973;43.742;1.236;2024-02-16T08:39:29;10.98;;;3.80;;
44276;SDS011;29973;43.742;1.236;2024-02-16T08:41:55;11.05;;;3.33;;
44276;SDS011;29973;43.742;1.236;2024-02-16T08:44:21;12.32;;;6.18;;
44276;SDS011;29973;43.742;1.236;2024-02-16T08:46:47;8.32;;;5.05;;
44276;SDS011;29973;43.742;1.236;2024-02-16T08:49:14;8.65;;;5.40;;
44276;SDS011;29973;43.742;1.236;2024-02-16T08:51:40;10.68;;;4.72;;
44276;SDS011;29973;43.742;1.236;2024-02-16T08:54:06;6.60;;;3.40;;
44276;SDS011;29973;43.742;1.236;2024-02-16T08:56:32;14.23;;;5.25;;
44276;SDS011;29973;43.742;1.236;2024-02-16T08:59:00;7.80;;;4.60;;
44276;SDS011;29973;43.742;1.236;2024-02-16T09:01:32;9.95;;;5.95;;
44276;SDS011;29973;43.742;1.236;2024-02-16T09:03:59;9.60;;;6.85;;
44276;SDS011;29973;43.742;1.236;2024-02-16T09:06:25;7.68;;;7.03;;
44276;SDS011;29973;43.742;1.236;2024-02-16T09:08:51;8.82;;;7.65;;
44276;SDS011;29973;43.742;1.236;2024-02-16T09:11:17;7.95;;;6.40;;
44276;SDS011;29973;43.742;1.236;2024-02-16T09:13:43;8.85;;;4.00;;
44276;SDS011;29973;43.742;1.236;2024-02-16T09:16:09;11.30;;;3.10;;
44276;SDS011;29973;43.742;1.236;2024-02-16T09:18:34;8.70;;;4.45;;
44276;SDS011;29973;43.742;1.236;2024-02-16T09:21:03;6.25;;;4.55;;
44276;SDS011;29973;43.742;1.236;2024-02-16T09:23:29;7.65;;;2.72;;
44276;SDS011;29973;43.742;1.236;2024-02-16T09:25:57;10.23;;;3.13;;
44276;SDS011;29973;43.742;1.236;2024-02-16T09:28:24;5.53;;;2.22;;
44276;SDS011;29973;43.742;1.236;2024-02-16T09:30:50;7.13;;;2.15;;
44276;SDS011;29973;43.742;1.236;2024-02-16T09:33:15;15.90;;;3.03;;
44276;SDS011;29973;43.742;1.236;2024-02-16T09:35:41;7.53;;;2.30;;
44276;SDS011;29973;43.742;1.236;2024-02-16T09:38:07;8.65;;;3.15;;
44276;SDS011;29973;43.742;1.236;2024-02-16T09:40:35;19.00;;;2.92;;
44276;SDS011;29973;43.742;1.236;2024-02-16T09:43:01;20.35;;;2.75;;
44276;SDS011;29973;43.742;1.236;2024-02-16T09:45:27;17.90;;;2.85;;
44276;SDS011;29973;43.742;1.236;2024-02-16T09:47:55;19.85;;;2.97;;
44276;SDS011;29973;43.742;1.236;2024-02-16T09:50:22;12.60;;;2.50;;
44276;SDS011;29973;43.742;1.236;2024-02-16T09:52:49;17.10;;;2.92;;
44276;SDS011;29973;43.742;1.236;2024-02-16T09:55:16;19.83;;;3.05;;
44276;SDS011;29973;43.742;1.236;2024-02-16T09:57:43;16.63;;;3.35;;
44276;SDS011;29973;43.742;1.236;2024-02-16T10:00:09;16.77;;;2.72;;
44276;SDS011;29973;43.742;1.236;2024-02-16T10:02:42;20.23;;;3.20;;
44276;SDS011;29973;43.742;1.236;2024-02-16T10:05:15;20.58;;;2.92;;
44276;SDS011;29973;43.742;1.236;2024-02-16T10:07:43;18.30;;;3.17;;
44276;SDS011;29973;43.742;1.236;2024-02-16T10:10:25;17.77;;;3.10;;
44276;SDS011;29973;43.742;1.236;2024-02-16T10:13:05;14.55;;;2.80;;
44276;SDS011;29973;43.742;1.236;2024-02-16T10:15:31;13.32;;;2.88;;
44276;SDS011;29973;43.742;1.236;2024-02-16T10:18:01;15.65;;;2.80;;
44276;SDS011;29973;43.742;1.236;2024-02-16T10:20:28;16.70;;;3.30;;
44276;SDS011;29973;43.742;1.236;2024-02-16T10:25:33;17.85;;;3.08;;
44276;SDS011;29973;43.742;1.236;2024-02-16T10:28:01;12.15;;;2.05;;
44276;SDS011;29973;43.742;1.236;2024-02-16T10:30:29;17.13;;;2.58;;
44276;SDS011;29973;43.742;1.236;2024-02-16T10:32:58;20.48;;;3.10;;
44276;SDS011;29973;43.742;1.236;2024-02-16T10:35:24;14.00;;;2.92;;
44276;SDS011;29973;43.742;1.236;2024-02-16T10:37:51;19.85;;;3.63;;
44276;SDS011;29973;43.742;1.236;2024-02-16T10:40:19;17.30;;;2.53;;
44276;SDS011;29973;43.742;1.236;2024-02-16T10:42:45;12.45;;;2.53;;
44276;SDS011;29973;43.742;1.236;2024-02-16T10:45:14;15.90;;;2.90;;
44276;SDS011;29973;43.742;1.236;2024-02-16T10:47:40;18.05;;;2.60;;
44276;SDS011;29973;43.742;1.236;2024-02-16T10:50:06;19.80;;;4.07;;
44276;SDS011;29973;43.742;1.236;2024-02-16T10:52:32;14.02;;;2.67;;
44276;SDS011;29973;43.742;1.236;2024-02-16T10:54:59;17.90;;;3.35;;
44276;SDS011;29973;43.742;1.236;2024-02-16T10:57:26;10.60;;;3.20;;
44276;SDS011;29973;43.742;1.236;2024-02-16T10:59:52;24.92;;;4.93;;
44276;SDS011;29973;43.742;1.236;2024-02-16T11:02:19;27.48;;;4.32;;
44276;SDS011;29973;43.742;1.236;2024-02-16T11:04:46;20.55;;;4.03;;
44276;SDS011;29973;43.742;1.236;2024-02-16T11:07:15;28.92;;;3.92;;
44276;SDS011;29973;43.742;1.236;2024-02-16T11:09:42;27.92;;;5.13;;
44276;SDS011;29973;43.742;1.236;2024-02-16T11:12:08;16.48;;;4.65;;
44276;SDS011;29973;43.742;1.236;2024-02-16T11:14:43;17.20;;;4.90;;
44276;SDS011;29973;43.742;1.236;2024-02-16T11:17:11;20.35;;;5.50;;
44276;SDS011;29973;43.742;1.236;2024-02-16T11:19:45;12.55;;;3.22;;
44276;SDS011;29973;43.742;1.236;2024-02-16T11:22:14;17.95;;;3.35;;
44276;SDS011;29973;43.742;1.236;2024-02-16T11:24:44;22.70;;;3.40;;
44276;SDS011;29973;43.742;1.236;2024-02-16T11:27:11;18.45;;;2.90;;
44276;SDS011;29973;43.742;1.236;2024-02-16T11:29:38;17.77;;;2.67;;
44276;SDS011;29973;43.742;1.236;2024-02-16T11:32:05;16.15;;;2.92;;
44276;SDS011;29973;43.742;1.236;2024-02-16T11:34:32;19.08;;;2.97;;
44276;SDS011;29973;43.742;1.236;2024-02-16T11:36:59;12.07;;;3.08;;
44276;SDS011;29973;43.742;1.236;2024-02-16T11:39:25;16.08;;;2.97;;
44276;SDS011;29973;43.742;1.236;2024-02-16T11:42:02;25.80;;;3.00;;
44276;SDS011;29973;43.742;1.236;2024-02-16T11:44:30;21.50;;;2.75;;
44276;SDS011;29973;43.742;1.236;2024-02-16T11:47:00;20.38;;;3.55;;
44276;SDS011;29973;43.742;1.236;2024-02-16T11:49:28;23.35;;;3.30;;
44276;SDS011;29973;43.742;1.236;2024-02-16T11:51:54;13.63;;;3.03;;
44276;SDS011;29973;43.742;1.236;2024-02-16T11:54:21;11.45;;;2.88;;
44276;SDS011;29973;43.742;1.236;2024-02-16T11:56:48;19.88;;;3.17;;
44276;SDS011;29973;43.742;1.236;2024-02-16T11:59:17;13.00;;;2.83;;
44276;SDS011;29973;43.742;1.236;2024-02-16T12:01:57;21.45;;;3.00;;
44276;SDS011;29973;43.742;1.236;2024-02-16T12:04:27;15.60;;;2.97;;
44276;SDS011;29973;43.742;1.236;2024-02-16T12:06:57;17.33;;;3.50;;
44276;SDS011;29973;43.742;1.236;2024-02-16T12:09:25;9.15;;;2.25;;
44276;SDS011;29973;43.742;1.236;2024-02-16T12:11:52;13.65;;;2.88;;
44276;SDS011;29973;43.742;1.236;2024-02-16T12:14:20;17.80;;;2.58;;
44276;SDS011;29973;43.742;1.236;2024-02-16T12:16:47;17.17;;;2.90;;
44276;SDS011;29973;43.742;1.236;2024-02-16T12:19:14;20.75;;;3.45;;
44276;SDS011;29973;43.742;1.236;2024-02-16T12:21:41;19.40;;;3.10;;
44276;SDS011;29973;43.742;1.236;2024-02-16T12:24:06;9.43;;;2.63;;
44276;SDS011;29973;43.742;1.236;2024-02-16T12:26:32;12.15;;;3.13;;
44276;SDS011;29973;43.742;1.236;2024-02-16T12:28:58;19.98;;;3.92;;
44276;SDS011;29973;43.742;1.236;2024-02-16T12:31:24;17.55;;;3.50;;
44276;SDS011;29973;43.742;1.236;2024-02-16T12:33:51;15.50;;;3.67;;
44276;SDS011;29973;43.742;1.236;2024-02-16T12:36:17;17.23;;;2.38;;
44276;SDS011;29973;43.742;1.236;2024-02-16T12:38:43;12.70;;;2.40;;
44276;SDS011;29973;43.742;1.236;2024-02-16T12:41:08;12.43;;;2.95;;
44276;SDS011;29973;43.742;1.236;2024-02-16T12:43:34;13.65;;;2.60;;
44276;SDS011;29973;43.742;1.236;2024-02-16T12:46:00;10.60;;;2.25;;
44276;SDS011;29973;43.742;1.236;2024-02-16T12:48:28;15.27;;;2.90;;
44276;SDS011;29973;43.742;1.236;2024-02-16T12:50:54;11.32;;;3.15;;
44276;SDS011;29973;43.742;1.236;2024-02-16T12:53:20;15.60;;;2.70;;
44276;SDS011;29973;43.742;1.236;2024-02-16T12:55:49;16.92;;;3.20;;
44276;SDS011;29973;43.742;1.236;2024-02-16T12:58:15;11.57;;;2.85;;
44276;SDS011;29973;43.742;1.236;2024-02-16T13:00:41;12.55;;;3.05;;
44276;SDS011;29973;43.742;1.236;2024-02-16T13:03:07;20.00;;;3.42;;
44276;SDS011;29973;43.742;1.236;2024-02-16T13:05:33;19.83;;;4.18;;
44276;SDS011;29973;43.742;1.236;2024-02-16T13:07:59;16.20;;;4.43;;
44276;SDS011;29973;43.742;1.236;2024-02-16T13:10:25;21.38;;;4.00;;
44276;SDS011;29973;43.742;1.236;2024-02-16T13:12:50;11.57;;;2.95;;
44276;SDS011;29973;43.742;1.236;2024-02-16T13:15:16;18.98;;;3.20;;
44276;SDS011;29973;43.742;1.236;2024-02-16T13:17:42;21.23;;;3.53;;
44276;SDS011;29973;43.742;1.236;2024-02-16T13:20:07;26.38;;;3.50;;
44276;SDS011;29973;43.742;1.236;2024-02-16T13:22:37;14.43;;;3.08;;
44276;SDS011;29973;43.742;1.236;2024-02-16T13:25:03;16.15;;;2.47;;
44276;SDS011;29973;43.742;1.236;2024-02-16T13:27:30;18.50;;;2.70;;
44276;SDS011;29973;43.742;1.236;2024-02-16T13:29:56;21.10;;;3.70;;
44276;SDS011;29973;43.742;1.236;2024-02-16T13:32:22;30.90;;;4.57;;
44276;SDS011;29973;43.742;1.236;2024-02-16T13:34:48;15.80;;;3.55;;
44276;SDS011;29973;43.742;1.236;2024-02-16T13:37:14;19.70;;;3.75;;
44276;SDS011;29973;43.742;1.236;2024-02-16T13:39:39;10.52;;;2.22;;
44276;SDS011;29973;43.742;1.236;2024-02-16T13:42:05;14.20;;;3.40;;
44276;SDS011;29973;43.742;1.236;2024-02-16T13:44:31;17.08;;;2.92;;
44276;SDS011;29973;43.742;1.236;2024-02-16T13:46:57;10.75;;;2.97;;
44276;SDS011;29973;43.742;1.236;2024-02-16T13:49:23;23.52;;;2.80;;
44276;SDS011;29973;43.742;1.236;2024-02-16T13:51:48;26.20;;;3.85;;
44276;SDS011;29973;43.742;1.236;2024-02-16T13:54:14;20.13;;;3.22;;
44276;SDS011;29973;43.742;1.236;2024-02-16T13:56:40;23.15;;;4.32;;
44276;SDS011;29973;43.742;1.236;2024-02-16T13:59:06;21.15;;;4.65;;
44276;SDS011;29973;43.742;1.236;2024-02-16T14:01:34;18.25;;;3.72;;
44276;SDS011;29973;43.742;1.236;2024-02-16T14:04:01;15.55;;;3.08;;
44276;SDS011;29973;43.742;1.236;2024-02-16T14:06:27;19.75;;;4.07;;
44276;SDS011;29973;43.742;1.236;2024-02-16T14:08:52;24.95;;;3.80;;
44276;SDS011;29973;43.742;1.236;2024-02-16T14:11:18;15.27;;;3.80;;
44276;SDS011;29973;43.742;1.236;2024-02-16T14:13:44;19.92;;;2.80;;
44276;SDS011;29973;43.742;1.236;2024-02-16T14:16:10;26.88;;;3.30;;
44276;SDS011;29973;43.742;1.236;2024-02-16T14:18:36;18.30;;;3.17;;
44276;SDS011;29973;43.742;1.236;2024-02-16T14:21:02;23.85;;;4.05;;
44276;SDS011;29973;43.742;1.236;2024-02-16T14:23:29;14.43;;;3.78;;
44276;SDS011;29973;43.742;1.236;2024-02-16T14:25:55;10.27;;;3.45;;
44276;SDS011;29973;43.742;1.236;2024-02-16T14:28:21;10.15;;;2.83;;
44276;SDS011;29973;43.742;1.236;2024-02-16T14:30:46;10.63;;;3.08;;
44276;SDS011;29973;43.742;1.236;2024-02-16T14:33:12;10.65;;;2.92;;
44276;SDS011;29973;43.742;1.236;2024-02-16T14:35:37;9.30;;;3.30;;
44276;SDS011;29973;43.742;1.236;2024-02-16T14:38:04;5.53;;;2.63;;